Terminal Aerodrome Forecast
Issued by NWS

Home | Current Version | Previous Version | Text Only | Print | Product List | Glossary Off
Versions: 1 2 3 4 5 6 7 8 9 10 11 12 13 14 15 16 17 18 19 20

738
FTUS43 KICT 200534
TAFCNU
TAF
KCNU 200534Z 2006/2106 14006KT P6SM OVC030
     FM200900 10005KT 4SM BR OVC017
      TEMPO 2009/2012 1SM BR OVC007
     FM201200 11005KT 1/2SM FG OVC005
     FM201500 13006KT 2SM BR OVC006
     FM201700 15010KT 6SM BR BKN020
     FM202000 18009KT P6SM BKN035=

USA.gov is the U.S. government's official web portal to all federal, state and local government web resources and services.